createdAt,value
2022-10-02T00:03:43.226Z,9.1
2022-10-02T00:08:42.738Z,9.1
2022-10-02T00:13:42.300Z,9.2
2022-10-02T00:18:42.384Z,9.2
2022-10-02T00:23:43.733Z,9.2
2022-10-02T00:28:42.351Z,9.3
2022-10-02T00:33:42.307Z,9.3
2022-10-02T00:38:42.304Z,9.3
2022-10-02T00:43:42.337Z,9.3
2022-10-02T00:48:42.435Z,9.4
2022-10-02T00:53:42.287Z,9.4
2022-10-02T00:58:42.281Z,9.4
2022-10-02T01:03:42.433Z,9.4
2022-10-02T01:08:42.279Z,9.4
2022-10-02T01:13:42.277Z,9.4
2022-10-02T01:18:42.417Z,9.5
2022-10-02T01:23:42.298Z,9.5
2022-10-02T01:28:42.243Z,9.5
2022-10-02T01:33:42.501Z,9.5
2022-10-02T01:38:43.247Z,9.5
2022-10-02T01:43:42.246Z,9.6
2022-10-02T01:48:42.204Z,9.6
2022-10-02T01:53:42.169Z,9.6
2022-10-02T01:58:42.151Z,9.6
2022-10-02T02:03:42.286Z,9.6
2022-10-02T02:08:42.170Z,9.6
2022-10-02T02:13:42.222Z,9.6
2022-10-02T02:18:42.269Z,9.6
2022-10-02T02:23:42.140Z,9.7
2022-10-02T02:28:42.187Z,9.7
2022-10-02T02:33:42.311Z,9.7
2022-10-02T02:38:42.102Z,9.8
2022-10-02T02:43:42.164Z,9.8
2022-10-02T02:48:42.267Z,9.8
2022-10-02T02:53:42.152Z,9.8
2022-10-02T02:58:43.632Z,9.8
2022-10-02T03:03:42.170Z,9.8
2022-10-02T03:08:42.250Z,9.8
2022-10-02T03:13:42.274Z,9.8
2022-10-02T03:18:42.000Z,9.9
2022-10-02T03:23:42.067Z,9.9
2022-10-02T03:28:55.665Z,9.9
2022-10-02T03:33:42.078Z,10.0
2022-10-02T03:38:41.989Z,10.0
2022-10-02T03:43:42.150Z,10.0
2022-10-02T03:48:42.083Z,10.0
2022-10-02T03:53:42.067Z,10.1
2022-10-02T03:58:41.922Z,10.1
2022-10-02T04:03:41.992Z,10.1
2022-10-02T04:08:41.930Z,10.1
2022-10-02T04:13:42.433Z,10.1
2022-10-02T04:18:42.022Z,10.1
2022-10-02T04:23:42.067Z,10.1
2022-10-02T04:28:42.146Z,10.1
2022-10-02T04:33:42.012Z,10.1
2022-10-02T04:38:42.020Z,10.1
2022-10-02T04:43:42.197Z,10.2
2022-10-02T04:48:41.959Z,10.1
2022-10-02T04:53:42.005Z,10.1
2022-10-02T04:58:42.057Z,10.1
2022-10-02T05:03:41.964Z,10.1
2022-10-02T05:08:41.945Z,10.1
2022-10-02T05:13:41.836Z,10.1
2022-10-02T05:18:42.866Z,10.1
2022-10-02T05:23:41.827Z,10.1
2022-10-02T05:28:41.912Z,10.1
2022-10-02T05:33:45.958Z,10.1
2022-10-02T05:38:42.478Z,10.1
2022-10-02T05:43:42.027Z,10.1
2022-10-02T05:48:41.833Z,10.1
2022-10-02T05:53:41.728Z,10.1
2022-10-02T05:58:41.891Z,10.1
2022-10-02T06:03:41.835Z,10.1
2022-10-02T06:08:41.749Z,10.2
2022-10-02T06:13:41.915Z,10.2
2022-10-02T06:18:41.783Z,10.3
2022-10-02T06:23:41.820Z,10.3
2022-10-02T06:28:41.676Z,10.3
2022-10-02T06:33:41.704Z,10.4
2022-10-02T06:38:41.760Z,10.4
2022-10-02T06:43:42.132Z,10.5
2022-10-02T06:48:41.761Z,10.5
2022-10-02T06:53:41.763Z,10.6
2022-10-02T06:58:41.882Z,10.6
2022-10-02T07:03:41.689Z,10.6
2022-10-02T07:08:41.688Z,10.7
2022-10-02T07:13:41.755Z,10.8
2022-10-02T07:18:41.796Z,11.0
2022-10-02T07:23:41.801Z,11.1
2022-10-02T07:28:41.561Z,11.1
2022-10-02T07:33:41.637Z,11.1
2022-10-02T07:38:41.671Z,11.1
2022-10-02T07:43:41.763Z,11.2
2022-10-02T07:48:41.576Z,11.2
2022-10-02T07:53:41.761Z,11.3
2022-10-02T07:58:41.787Z,11.3
2022-10-02T08:03:41.616Z,11.4
2022-10-02T08:08:41.578Z,11.4
2022-10-02T08:13:41.974Z,11.4
2022-10-02T08:18:41.549Z,11.5
2022-10-02T08:23:41.485Z,11.5
2022-10-02T08:28:41.595Z,11.6
2022-10-02T08:33:41.900Z,11.6
2022-10-02T08:38:41.625Z,11.7
2022-10-02T08:43:41.873Z,11.7
2022-10-02T08:48:41.560Z,11.6
2022-10-02T08:53:41.681Z,11.6
2022-10-02T08:58:41.555Z,11.6
2022-10-02T09:03:41.565Z,11.6
2022-10-02T09:08:41.596Z,11.7
2022-10-02T09:13:41.524Z,11.9
2022-10-02T09:18:41.457Z,12.0
2022-10-02T09:23:41.720Z,12.2
2022-10-02T09:28:41.746Z,12.6
2022-10-02T09:33:41.515Z,13.0
2022-10-02T09:38:41.721Z,13.3
2022-10-02T09:43:41.434Z,13.4
2022-10-02T09:48:41.553Z,13.4
2022-10-02T09:53:41.703Z,13.5
2022-10-02T09:58:41.429Z,13.5
2022-10-02T10:03:41.528Z,13.4
2022-10-02T10:08:41.513Z,13.4
2022-10-02T10:13:41.361Z,13.4
2022-10-02T10:18:41.363Z,13.3
2022-10-02T10:23:41.493Z,13.3
2022-10-02T10:28:41.451Z,13.3
2022-10-02T10:33:41.318Z,13.3
2022-10-02T10:38:41.347Z,13.4
2022-10-02T10:43:42.172Z,13.5
2022-10-02T10:48:44.804Z,13.3
2022-10-02T10:53:42.067Z,13.2
2022-10-02T10:58:42.461Z,13.0
2022-10-02T11:03:41.351Z,12.9
2022-10-02T11:08:41.989Z,13.1
2022-10-02T11:13:41.278Z,13.4
2022-10-02T11:18:41.262Z,13.4
2022-10-02T11:23:41.357Z,13.5
2022-10-02T11:28:41.263Z,13.6
2022-10-02T11:33:41.164Z,14.0
2022-10-02T11:38:41.318Z,14.3
2022-10-02T11:43:44.105Z,14.6
2022-10-02T11:48:41.237Z,14.7
2022-10-02T11:53:41.313Z,14.8
2022-10-02T11:58:41.185Z,15.0
2022-10-02T12:03:41.403Z,15.1
2022-10-02T12:08:41.364Z,15.2
2022-10-02T12:13:41.279Z,15.3
2022-10-02T12:18:42.176Z,15.5
2022-10-02T12:23:41.170Z,15.7
2022-10-02T12:28:41.433Z,15.5
2022-10-02T12:33:41.127Z,15.3
2022-10-02T12:38:41.314Z,15.1
2022-10-02T12:43:41.202Z,15.0
2022-10-02T12:48:41.540Z,14.9
2022-10-02T12:53:41.536Z,15.2
2022-10-02T12:58:41.337Z,15.3
2022-10-02T13:03:41.320Z,15.2
2022-10-02T13:08:41.251Z,15.0
2022-10-02T13:13:41.211Z,14.6
2022-10-02T13:18:41.093Z,14.3
2022-10-02T13:23:42.166Z,14.1
2022-10-02T13:28:41.542Z,13.8
2022-10-02T13:33:41.165Z,13.6
2022-10-02T13:38:41.292Z,13.6
2022-10-02T13:43:41.136Z,13.8
2022-10-02T13:48:41.089Z,14.0
2022-10-02T13:53:41.395Z,14.2
2022-10-02T13:58:40.964Z,14.4
2022-10-02T14:03:41.399Z,14.3
2022-10-02T14:08:41.585Z,14.2
2022-10-02T14:13:41.190Z,13.9
2022-10-02T14:18:41.201Z,13.6
2022-10-02T14:23:41.332Z,13.3
2022-10-02T14:28:41.170Z,13.0
2022-10-02T14:33:41.165Z,12.4
2022-10-02T14:38:41.859Z,12.0
2022-10-02T14:43:41.196Z,11.7
2022-10-02T14:48:43.092Z,11.6
2022-10-02T14:53:41.950Z,11.6
2022-10-02T14:58:42.116Z,11.6
2022-10-02T15:03:42.213Z,11.6
2022-10-02T15:08:40.997Z,11.6
2022-10-02T15:13:43.182Z,11.6
2022-10-02T15:18:41.106Z,11.6
2022-10-02T15:23:41.012Z,11.4
2022-10-02T15:28:41.497Z,11.4
2022-10-02T15:33:40.870Z,11.3
2022-10-02T15:38:41.034Z,11.3
2022-10-02T15:43:41.812Z,11.3
2022-10-02T15:48:43.682Z,11.2
2022-10-02T15:53:40.902Z,11.1
2022-10-02T15:58:41.266Z,11.1
2022-10-02T16:03:41.152Z,11.0
2022-10-02T16:08:41.153Z,11.0
2022-10-02T16:13:46.319Z,10.9
2022-10-02T16:18:40.956Z,10.9
2022-10-02T16:23:41.131Z,10.9
2022-10-02T16:28:42.021Z,10.9
2022-10-02T16:33:40.875Z,10.9
2022-10-02T16:38:40.767Z,10.9
2022-10-02T16:43:40.956Z,10.9
2022-10-02T16:48:41.015Z,10.9
2022-10-02T16:53:40.882Z,10.9
2022-10-02T16:58:40.785Z,10.8
2022-10-02T17:03:40.796Z,10.7
2022-10-02T17:08:41.119Z,10.6
2022-10-02T17:13:40.909Z,10.6
2022-10-02T17:18:42.922Z,10.6
2022-10-02T17:23:41.930Z,10.6
2022-10-02T17:28:42.134Z,10.6
2022-10-02T17:33:40.929Z,10.5
2022-10-02T17:38:41.578Z,10.5
2022-10-02T17:43:40.692Z,10.4
2022-10-02T17:48:40.827Z,10.4
2022-10-02T17:53:41.951Z,10.4
2022-10-02T17:58:41.328Z,10.4
2022-10-02T18:03:40.730Z,10.4
2022-10-02T18:08:40.769Z,10.3
2022-10-02T18:13:42.066Z,10.2
2022-10-02T18:18:40.677Z,10.1
2022-10-02T18:23:40.671Z,10.0
2022-10-02T18:28:40.935Z,9.9
2022-10-02T18:33:40.523Z,9.8
2022-10-02T18:38:40.572Z,9.7
2022-10-02T18:43:40.850Z,9.6
2022-10-02T18:48:40.503Z,9.6
2022-10-02T18:53:40.461Z,9.5
2022-10-02T18:58:40.624Z,9.5
2022-10-02T19:03:40.456Z,9.5
2022-10-02T19:08:40.880Z,9.4
2022-10-02T19:13:40.826Z,9.4
2022-10-02T19:18:40.620Z,9.4
2022-10-02T19:23:40.627Z,9.4
2022-10-02T19:28:40.919Z,9.4
2022-10-02T19:38:40.821Z,9.4
2022-10-02T19:43:40.417Z,9.3
2022-10-02T19:48:40.451Z,9.3
2022-10-02T19:53:40.824Z,9.3
2022-10-02T19:58:40.610Z,9.2
2022-10-02T20:03:40.477Z,9.2
2022-10-02T20:08:40.485Z,9.1
2022-10-02T20:13:40.362Z,9.1
2022-10-02T20:18:40.364Z,9.0
2022-10-02T20:23:40.860Z,9.0
2022-10-02T20:28:40.347Z,8.9
2022-10-02T20:33:40.913Z,8.9
2022-10-02T20:38:40.452Z,8.8
2022-10-02T20:43:40.325Z,8.8
2022-10-02T20:49:06.374Z,8.7
2022-10-02T20:53:40.383Z,8.7
2022-10-02T20:58:40.313Z,8.6
2022-10-02T21:03:40.389Z,8.6
2022-10-02T21:08:40.358Z,8.6
2022-10-02T21:13:40.326Z,8.6
2022-10-02T21:18:40.305Z,8.6
2022-10-02T21:23:40.467Z,8.6
2022-10-02T21:28:40.226Z,8.6
2022-10-02T21:33:40.230Z,8.7
2022-10-02T21:38:40.313Z,8.7
2022-10-02T21:43:40.191Z,8.8
2022-10-02T21:48:40.240Z,8.8
2022-10-02T21:53:40.291Z,8.9
2022-10-02T21:58:40.186Z,9.0
2022-10-02T22:03:40.235Z,9.0
2022-10-02T22:08:40.323Z,9.0
2022-10-02T22:13:40.127Z,9.1
2022-10-02T22:18:40.132Z,9.1
2022-10-02T22:23:40.303Z,9.1
2022-10-02T22:28:40.196Z,9.1
2022-10-02T22:33:40.127Z,9.1
2022-10-02T22:38:40.373Z,9.1
2022-10-02T22:43:40.131Z,9.1
2022-10-02T22:48:40.402Z,9.0
2022-10-02T22:53:40.458Z,9.0
2022-10-02T22:58:40.055Z,9.0
2022-10-02T23:03:40.063Z,8.9
2022-10-02T23:08:40.198Z,8.9
2022-10-02T23:13:40.083Z,8.9
2022-10-02T23:18:40.010Z,8.9
2022-10-02T23:23:40.152Z,8.9
2022-10-02T23:28:40.032Z,8.9
2022-10-02T23:33:39.997Z,9.0
2022-10-02T23:38:40.218Z,9.0
2022-10-02T23:43:40.031Z,9.0
2022-10-02T23:48:40.026Z,9.0
2022-10-02T23:53:40.217Z,9.1
2022-10-02T23:58:39.964Z,9.1
